Аэропорт: Оренбург-Центральный. Оренбург

ICAO: UWOO

METAR:
2019/05/26 14:00
UWOO 261400Z 17004MPS 140V200 CAVOK 26/00 Q1017 R08/CLRD65 NOSIG RMK QFE752/1002
METAR:
2019/05/26 12:21
TAF UWOO 261052Z 2612/2712 17006G12MPS 9999 SCT040 TX26/2612Z TN10/2702Z 
      TEMPO 2612/2618 19008G14MPS 
     FM261800 17007G14MPS 9999 BKN020 SCT030CB 
      TEMPO 2618/2712 3100 -SHRA BKN011 BKN020CB PROB40 
      TEMPO 2621/2712 -TSRA